Time;durP1;ratioP1;P1;durP2;ratioP2;P2;SDS_P1;SDS_P2;PMS_P1;PMS_P2;Temp;Humidity;BMP_temperature;BMP_pressure;BME280_temperature;BME280_humidity;BME280_pressure;Samples;Min_cycle;Max_cycle;Signal;HPM_P1;HPM_P2
2022/12/28 00:01:35;;;;;;;2.77;1.30;;;;;;;5.62;75.78;101345.66;4994326;28;20909;-80
2022/12/28 00:04:05;;;;;;;1.60;1.30;;;;;;;5.52;76.00;101373.97;4994704;28;20210;-80
2022/12/28 00:06:33;;;;;;;2.40;1.20;;;;;;;5.46;76.58;101362.66;4995050;28;20206;-80
2022/12/28 00:09:00;;;;;;;2.90;1.20;;;;;;;5.21;77.06;101359.63;4994583;28;20236;-81
2022/12/28 00:11:28;;;;;;;4.23;1.70;;;;;;;5.36;76.96;101334.00;4995048;28;20256;-81
2022/12/28 00:13:54;;;;;;;2.27;1.70;;;;;;;5.42;76.96;101315.13;4995902;28;20682;-79
2022/12/28 00:16:26;;;;;;;1.50;1.40;;;;;;;5.48;77.53;101301.41;4996452;28;20205;-80
2022/12/28 00:18:52;;;;;;;4.50;1.60;;;;;;;5.50;77.50;101305.75;4995789;28;20230;-80
2022/12/28 00:21:19;;;;;;;2.53;1.60;;;;;;;5.48;77.31;101285.88;4995627;28;20692;-80
2022/12/28 00:23:48;;;;;;;3.70;1.60;;;;;;;5.48;77.03;101289.34;4994524;28;20637;-80
2022/12/28 00:26:14;;;;;;;2.77;1.40;;;;;;;5.42;76.55;101281.47;4995628;28;20263;-79
2022/12/28 00:28:41;;;;;;;1.70;1.50;;;;;;;5.42;77.21;101291.81;4995930;28;20265;-80
2022/12/28 00:31:07;;;;;;;2.57;2.00;;;;;;;5.44;76.97;101278.91;4996283;28;20218;-80
2022/12/28 00:33:35;;;;;;;2.17;1.60;;;;;;;5.42;77.06;101278.88;4995959;28;20266;-80
2022/12/28 00:36:02;;;;;;;4.50;1.80;;;;;;;5.33;76.96;101283.91;4996294;28;20214;-80
2022/12/28 00:38:30;;;;;;;3.73;1.60;;;;;;;5.28;77.28;101285.56;4996348;28;20231;-80
2022/12/28 00:40:56;;;;;;;3.17;1.97;;;;;;;5.33;77.51;101269.25;4995913;28;20229;-80
2022/12/28 00:43:23;;;;;;;3.97;1.80;;;;;;;5.23;76.77;101264.75;4996301;28;20261;-80
2022/12/28 00:45:49;;;;;;;4.03;1.93;;;;;;;5.16;77.98;101266.38;4995148;28;20217;-81
2022/12/28 00:48:16;;;;;;;2.90;1.40;;;;;;;5.23;77.20;101257.00;4995131;28;20227;-81
2022/12/28 00:50:45;;;;;;;2.03;1.20;;;;;;;5.25;76.83;101251.84;4994348;28;20205;-80
2022/12/28 00:53:12;;;;;;;3.43;1.30;;;;;;;5.11;76.60;101265.47;4994333;28;20256;-80
2022/12/28 00:55:38;;;;;;;2.67;1.50;;;;;;;5.21;76.13;101263.00;4994473;28;20207;-80
2022/12/28 00:58:05;;;;;;;4.60;1.47;;;;;;;5.16;76.13;101265.53;4994321;28;20289;-80
2022/12/28 01:00:33;;;;;;;2.03;1.33;;;;;;;5.20;76.52;101262.13;4994291;28;20230;-80
2022/12/28 01:02:59;;;;;;;3.50;1.87;;;;;;;5.25;76.07;101259.63;4994113;28;20251;-79
2022/12/28 01:05:26;;;;;;;4.77;1.60;;;;;;;5.29;76.49;101251.03;4993845;28;20211;-80
2022/12/28 01:07:54;;;;;;;2.77;1.50;;;;;;;5.29;76.91;101241.59;4993310;28;20226;-80
2022/12/28 01:10:20;;;;;;;1.83;1.30;;;;;;;5.25;76.77;101228.56;4994085;28;20209;-80
2022/12/28 01:12:46;;;;;;;1.67;1.57;;;;;;;5.32;76.31;101225.22;4993914;28;20732;-80
2022/12/28 01:15:13;;;;;;;2.57;1.60;;;;;;;5.30;76.11;101232.97;4993696;28;20206;-81
2022/12/28 01:17:40;;;;;;;3.40;1.20;;;;;;;5.29;76.61;101219.97;4993452;28;20234;-80
2022/12/28 01:20:08;;;;;;;2.83;1.17;;;;;;;5.20;76.52;101223.31;4994018;28;20263;-81
2022/12/28 01:22:34;;;;;;;1.97;1.50;;;;;;;5.22;76.46;101215.59;4993707;28;20241;-80
2022/12/28 01:25:02;;;;;;;2.23;1.30;;;;;;;5.25;76.69;101208.75;4993689;28;20214;-79
2022/12/28 01:27:28;;;;;;;1.40;1.23;;;;;;;5.29;76.95;101195.00;4993806;28;20224;-79
2022/12/28 01:29:54;;;;;;;1.40;1.27;;;;;;;5.24;76.59;101188.88;4993327;28;20213;-81
2022/12/28 01:32:21;;;;;;;2.60;1.37;;;;;;;5.32;76.44;101173.44;4993188;28;20206;-80
2022/12/28 01:34:47;;;;;;;2.10;1.47;;;;;;;5.20;76.68;101162.94;4993451;28;20211;-80
2022/12/28 01:37:13;;;;;;;2.97;1.67;;;;;;;5.17;76.31;101176.66;4993668;28;20234;-80
2022/12/28 01:39:39;;;;;;;2.60;1.93;;;;;;;5.20;76.42;101175.88;4999744;28;20243;-79
2022/12/28 01:42:15;;;;;;;2.73;1.50;;;;;;;5.34;76.71;101169.16;5013008;28;20267;-80
2022/12/28 01:44:46;;;;;;;2.00;1.50;;;;;;;5.35;76.21;101161.44;5012918;28;20216;-80
2022/12/28 01:47:16;;;;;;;2.20;1.57;;;;;;;5.38;76.10;101168.34;5012936;28;20246;-79
2022/12/28 01:49:48;;;;;;;3.20;1.70;;;;;;;5.31;76.15;101166.53;5013308;28;20200;-79
2022/12/28 01:52:18;;;;;;;4.77;1.60;;;;;;;5.29;76.82;101166.53;5012779;28;20252;-79
2022/12/28 01:54:49;;;;;;;3.60;1.60;;;;;;;5.27;76.48;101151.78;5013261;28;20212;-80
2022/12/28 01:57:19;;;;;;;3.27;1.47;;;;;;;5.29;76.78;101155.28;5012709;28;20239;-80
2022/12/28 01:59:49;;;;;;;3.67;1.43;;;;;;;5.22;76.37;101140.53;5013153;28;20283;-79
2022/12/28 02:02:16;;;;;;;6.10;2.13;;;;;;;5.16;76.95;101129.22;5001089;28;20572;-80
2022/12/28 02:04:43;;;;;;;2.23;1.27;;;;;;;5.23;77.02;101108.59;4993592;28;20208;-81
2022/12/28 02:07:11;;;;;;;2.73;1.43;;;;;;;5.25;77.35;101094.84;4993295;28;20275;-80
2022/12/28 02:09:39;;;;;;;3.30;2.10;;;;;;;5.21;77.07;101098.22;4992652;28;20740;-79
2022/12/28 02:12:08;;;;;;;4.57;1.90;;;;;;;5.27;77.26;101080.22;4993211;28;20211;-80
2022/12/28 02:14:36;;;;;;;4.37;1.83;;;;;;;5.17;77.05;101060.22;4993397;28;20218;-80
2022/12/28 02:17:02;;;;;;;2.33;1.40;;;;;;;5.24;77.41;101058.59;4992944;28;20232;-80
2022/12/28 02:19:36;;;;;;;2.43;1.40;;;;;;;5.21;77.43;101040.44;4992932;28;20283;-79
2022/12/28 02:22:24;;;;;;;1.53;1.43;;;;;;;5.05;76.97;101047.97;4992586;28;20206;-80
2022/12/28 02:25:11;;;;;;;9.33;2.20;;;;;;;5.18;77.96;101041.25;4993080;28;20632;-81
2022/12/28 02:27:49;;;;;;;3.00;1.80;;;;;;;5.26;78.26;101020.66;4993283;28;20230;-80
2022/12/28 02:30:18;;;;;;;2.47;1.57;;;;;;;5.30;78.48;101002.59;4992821;28;20211;-80
2022/12/28 02:33:00;;;;;;;3.70;1.57;;;;;;;5.22;77.23;101003.34;4993017;28;20465;-81
2022/12/28 02:35:34;;;;;;;1.73;1.63;;;;;;;5.18;77.25;101015.38;4993509;28;20210;-80
2022/12/28 02:38:07;;;;;;;3.13;1.97;;;;;;;5.26;77.81;101002.53;4993200;28;20295;-80
2022/12/28 02:40:40;;;;;;;4.53;2.00;;;;;;;5.26;78.00;101007.72;4992624;28;20213;-79
2022/12/28 02:43:06;;;;;;;3.33;2.00;;;;;;;5.23;78.51;100998.19;4993059;28;20194;-80
2022/12/28 02:51:23;;;;;;;2.87;1.80;;;;;;;5.34;77.68;100965.53;4996119;28;20588;-81
2022/12/28 02:56:06;;;;;;;3.53;2.30;;;;;;;5.36;77.84;100962.97;4996669;28;20204;-80
2022/12/28 02:57:07;;;;;;;2.97;2.13;;;;;;;5.32;78.05;100963.78;4996212;28;20241;-80
2022/12/28 02:59:52;;;;;;;3.43;2.03;;;;;;;5.24;77.95;100943.00;4996172;28;20227;-80
2022/12/28 03:02:43;;;;;;;3.03;2.57;;;;;;;5.30;79.04;100931.84;4996205;28;20595;-79
2022/12/28 03:05:15;;;;;;;3.27;1.93;;;;;;;5.31;78.94;100918.91;4996289;28;20636;-80
2022/12/28 03:10:42;;;;;;;4.07;2.23;;;;;;;5.37;79.30;100902.56;4996022;28;20211;-79
2022/12/28 03:13:41;;;;;;;4.97;2.17;;;;;;;5.41;78.47;100899.16;4996208;28;20683;-79
2022/12/28 03:16:06;;;;;;;3.07;2.20;;;;;;;5.46;78.16;100900.06;4996113;28;20286;-80
2022/12/28 03:32:31;;;;;;;2.67;2.13;;;;;;;5.31;81.23;100768.78;4995879;28;20248;-80
2022/12/28 03:34:59;;;;;;;2.83;2.30;;;;;;;5.34;82.23;100736.88;4995944;28;20209;-81
2022/12/28 03:37:31;;;;;;;5.07;3.03;;;;;;;5.22;81.61;100747.16;4995993;28;20233;-80
2022/12/28 03:40:02;;;;;;;3.00;2.60;;;;;;;5.23;82.34;100723.84;4995530;28;20702;-81
2022/12/28 03:45:29;;;;;;;7.90;2.50;;;;;;;5.38;82.25;100685.13;4995714;28;20252;-79
2022/12/28 03:47:57;;;;;;;5.00;2.50;;;;;;;5.30;83.20;100667.84;4995945;28;20234;-79
2022/12/28 03:50:24;;;;;;;5.03;2.47;;;;;;;5.29;83.77;100641.09;4995637;28;20232;-81
2022/12/28 03:52:51;;;;;;;2.57;2.00;;;;;;;5.40;84.24;100614.41;4995560;28;20212;-80
2022/12/28 03:55:18;;;;;;;4.10;3.03;;;;;;;5.49;84.69;100599.78;4995344;28;20213;-80
2022/12/28 03:57:44;;;;;;;3.23;2.33;;;;;;;5.47;84.94;100587.66;4994947;28;20240;-80
2022/12/28 04:00:12;;;;;;;3.87;2.13;;;;;;;5.43;84.25;100586.81;4994968;28;20229;-81
2022/12/28 04:02:38;;;;;;;3.47;2.60;;;;;;;5.43;84.46;100596.28;4995260;28;20211;-81
2022/12/28 04:05:06;;;;;;;3.47;2.40;;;;;;;5.51;84.77;100573.88;4995234;28;20219;-80
2022/12/28 04:07:33;;;;;;;4.57;3.00;;;;;;;5.56;83.72;100578.22;4994934;28;20293;-80
2022/12/28 04:09:59;;;;;;;4.27;2.10;;;;;;;5.55;84.57;100586.00;4995050;28;20205;-81
2022/12/28 04:12:26;;;;;;;5.60;2.40;;;;;;;5.52;84.69;100566.13;4995190;28;20210;-79
2022/12/28 04:14:52;;;;;;;3.97;2.37;;;;;;;5.51;84.45;100556.63;4995167;28;20273;-79
2022/12/28 04:17:19;;;;;;;3.77;2.77;;;;;;;5.53;84.21;100554.91;4995483;28;20286;-80
2022/12/28 04:19:45;;;;;;;4.30;2.53;;;;;;;5.55;83.95;100540.25;4995354;28;20223;-77
2022/12/28 04:22:11;;;;;;;5.83;2.30;;;;;;;5.52;84.05;100548.00;4995407;28;20219;-80
2022/12/28 04:24:39;;;;;;;3.90;2.20;;;;;;;5.60;83.45;100552.34;4995143;28;20624;-80
2022/12/28 04:27:05;;;;;;;3.40;2.00;;;;;;;5.58;82.95;100555.78;4994795;28;20227;-79
2022/12/28 04:29:31;;;;;;;4.70;2.47;;;;;;;5.62;83.21;100563.56;4994856;28;20208;-79
2022/12/28 04:31:58;;;;;;;4.40;2.30;;;;;;;5.65;83.63;100545.44;4994661;28;20210;-81
2022/12/28 04:34:24;;;;;;;2.50;1.90;;;;;;;5.66;83.34;100550.63;4994784;28;20221;-80
2022/12/28 04:36:50;;;;;;;4.27;2.10;;;;;;;5.55;83.43;100554.94;4994476;28;20714;-80
2022/12/28 04:39:17;;;;;;;2.97;2.53;;;;;;;5.68;83.74;100550.63;4994766;28;20228;-81
2022/12/28 04:41:44;;;;;;;2.83;1.97;;;;;;;5.70;83.61;100536.81;4994021;28;20261;-80
2022/12/28 04:44:11;;;;;;;2.50;1.90;;;;;;;5.73;83.71;100523.91;4994508;28;20674;-80
2022/12/28 04:46:37;;;;;;;3.00;2.00;;;;;;;5.69;83.17;100523.88;4994462;28;20233;-80
2022/12/28 04:49:03;;;;;;;2.70;1.97;;;;;;;5.77;83.55;100528.22;4994460;28;20200;-80
2022/12/28 04:51:30;;;;;;;5.20;1.83;;;;;;;5.76;83.46;100523.88;4994293;28;20212;-80
2022/12/28 04:53:57;;;;;;;2.53;2.13;;;;;;;5.80;83.24;100505.78;4994514;28;20206;-80
2022/12/28 04:56:26;;;;;;;2.87;1.60;;;;;;;5.80;83.27;100505.78;4994887;28;20209;-80
2022/12/28 04:58:55;;;;;;;3.10;1.97;;;;;;;5.82;82.91;100502.31;4995588;28;20285;-80
2022/12/28 05:01:21;;;;;;;2.20;1.70;;;;;;;5.81;83.22;100507.47;4994887;28;20209;-80
2022/12/28 05:03:49;;;;;;;3.77;1.93;;;;;;;5.78;84.14;100492.81;4995689;28;20215;-79
2022/12/28 05:06:17;;;;;;;3.00;1.90;;;;;;;5.79;84.27;100481.59;4995567;28;20206;-80
2022/12/28 05:08:44;;;;;;;2.50;1.70;;;;;;;5.83;85.00;100470.38;4994771;28;20206;-80
2022/12/28 05:11:13;;;;;;;2.87;2.00;;;;;;;5.82;84.68;100442.75;4993984;28;20211;-80
2022/12/28 05:13:39;;;;;;;1.70;1.60;;;;;;;5.92;84.97;100444.47;4994803;28;20267;-80
2022/12/28 05:16:09;;;;;;;2.20;2.00;;;;;;;5.97;84.52;100447.97;4995265;28;20205;-80
2022/12/28 05:18:36;;;;;;;2.70;2.10;;;;;;;5.94;84.90;100439.28;4995093;28;20220;-80
2022/12/28 05:21:05;;;;;;;5.97;2.10;;;;;;;6.00;84.95;100425.50;4994993;28;20258;-81
2022/12/28 05:23:32;;;;;;;2.60;1.83;;;;;;;5.93;85.50;100422.03;4995019;28;20220;-80
2022/12/28 05:25:58;;;;;;;2.13;1.90;;;;;;;5.98;85.42;100420.31;4994862;28;20258;-80
2022/12/28 05:28:26;;;;;;;2.40;1.70;;;;;;;5.99;85.34;100421.22;4995091;28;20292;-80
2022/12/28 05:30:59;;;;;;;4.43;2.23;;;;;;;5.96;85.33;100416.88;4994649;28;20293;-81
2022/12/28 05:33:27;;;;;;;2.97;1.80;;;;;;;6.00;84.61;100417.72;4995138;28;20265;-80
2022/12/28 05:35:54;;;;;;;2.10;1.50;;;;;;;6.00;84.84;100418.59;4994878;28;20280;-79
2022/12/28 05:38:20;;;;;;;2.90;1.67;;;;;;;5.92;85.26;100405.59;4994958;28;20230;-80
2022/12/28 05:40:46;;;;;;;2.20;1.90;;;;;;;5.87;85.71;100397.00;4994714;28;20227;-80
2022/12/28 05:43:13;;;;;;;3.27;1.77;;;;;;;5.89;85.27;100397.00;4994963;28;20208;-80
2022/12/28 05:45:39;;;;;;;3.20;1.83;;;;;;;5.93;85.96;100385.75;4995145;28;20580;-80
2022/12/28 05:48:05;;;;;;;3.10;1.70;;;;;;;6.05;85.71;100377.16;4994811;28;20800;-81
2022/12/28 05:50:33;;;;;;;1.97;1.73;;;;;;;6.12;85.34;100371.94;4994864;28;20270;-81
2022/12/28 05:52:59;;;;;;;2.50;1.70;;;;;;;6.13;84.63;100396.13;4994881;28;20683;-81
2022/12/28 05:55:26;;;;;;;3.17;1.93;;;;;;;6.14;84.73;100408.22;4994811;28;20247;-81
2022/12/28 05:57:54;;;;;;;1.87;1.67;;;;;;;6.14;84.87;100414.28;5050280;23;20293;-83
2022/12/28 06:00:21;;;;;;;2.43;1.80;;;;;;;6.20;84.76;100407.34;5034334;28;20255;-81
2022/12/28 06:02:47;;;;;;;2.83;2.07;;;;;;;6.13;84.47;100412.53;5034754;28;20207;-82
2022/12/28 06:05:13;;;;;;;1.90;1.47;;;;;;;6.22;84.33;100410.78;5034855;28;20203;-83
2022/12/28 06:07:41;;;;;;;2.43;1.73;;;;;;;6.22;84.86;100414.25;5033932;28;20241;-83
2022/12/28 06:10:08;;;;;;;2.00;1.90;;;;;;;6.30;84.18;100394.38;5033109;28;20235;-81
2022/12/28 06:12:34;;;;;;;2.00;1.80;;;;;;;6.29;85.31;100399.56;5032581;28;20208;-81
2022/12/28 06:15:01;;;;;;;2.60;1.70;;;;;;;6.31;84.98;100403.00;5032535;28;20216;-82
2022/12/28 06:17:27;;;;;;;3.03;1.43;;;;;;;6.38;84.11;100404.72;5032324;28;20226;-81
2022/12/28 06:19:53;;;;;;;1.87;1.47;;;;;;;6.39;84.78;100409.03;5032345;28;20236;-81
2022/12/28 06:22:20;;;;;;;2.87;1.70;;;;;;;6.42;85.03;100390.00;5035048;28;20217;-82
2022/12/28 06:24:47;;;;;;;3.67;2.07;;;;;;;6.33;84.62;100388.31;5036677;28;20210;-81
2022/12/28 06:27:14;;;;;;;1.80;1.70;;;;;;;6.35;85.08;100384.00;5036657;28;20229;-81
2022/12/28 06:29:40;;;;;;;1.47;1.30;;;;;;;6.38;85.99;100367.56;5036565;28;20617;-81
2022/12/28 06:32:06;;;;;;;2.03;1.50;;;;;;;6.35;86.03;100348.56;5036405;28;20267;-80
2022/12/28 06:34:33;;;;;;;5.93;1.73;;;;;;;6.35;86.86;100333.00;5036361;28;20258;-78
2022/12/28 06:36:59;;;;;;;2.40;1.53;;;;;;;6.41;86.74;100313.13;5036599;28;20265;-82
2022/12/28 06:39:25;;;;;;;2.63;2.33;;;;;;;6.44;87.24;100301.00;5036327;28;20636;-79
2022/12/28 06:41:53;;;;;;;1.73;1.30;;;;;;;6.49;87.33;100275.06;5035726;28;20738;-79
2022/12/28 06:44:19;;;;;;;1.53;1.30;;;;;;;6.38;88.65;100264.72;5036442;28;20209;-82
2022/12/28 06:46:46;;;;;;;1.50;1.40;;;;;;;6.46;88.34;100259.50;5036062;28;20206;-79
2022/12/28 06:49:12;;;;;;;2.47;1.50;;;;;;;6.44;88.10;100243.09;5035955;28;20230;-78
2022/12/28 06:51:40;;;;;;;2.80;1.70;;;;;;;6.44;88.55;100237.91;5035590;28;20672;-82
2022/12/28 06:54:07;;;;;;;2.37;1.60;;;;;;;6.40;89.46;100226.69;5036038;28;20203;-82
2022/12/28 06:56:36;;;;;;;2.43;1.40;;;;;;;6.43;89.32;100205.09;5036387;28;20270;-80
2022/12/28 06:59:04;;;;;;;1.40;1.30;;;;;;;6.51;88.96;100211.06;5053387;28;20667;-81
2022/12/28 07:01:33;;;;;;;3.13;1.67;;;;;;;6.48;88.62;100206.78;5055585;28;20230;-80
2022/12/28 07:04:01;;;;;;;1.43;1.33;;;;;;;6.51;89.25;100203.31;5057002;28;20254;-82
2022/12/28 07:06:29;;;;;;;1.87;1.50;;;;;;;6.41;90.14;100175.72;5055985;28;20230;-83
2022/12/28 07:08:58;;;;;;;4.57;1.57;;;;;;;6.50;90.82;100158.38;5055130;28;20226;-80
2022/12/28 07:11:25;;;;;;;3.37;1.50;;;;;;;6.58;90.94;100145.34;5055050;28;20221;-79
2022/12/28 07:13:51;;;;;;;2.13;1.40;;;;;;;6.55;90.53;100160.91;5055500;28;20266;-81
2022/12/28 07:16:20;;;;;;;2.70;1.30;;;;;;;6.59;91.55;100141.03;5056158;28;20679;-81
2022/12/28 07:18:47;;;;;;;1.70;1.50;;;;;;;6.46;93.04;100120.38;5057602;28;20223;-80
2022/12/28 07:21:16;;;;;;;2.07;1.70;;;;;;;6.38;94.46;100083.25;5056784;28;20233;-80
2022/12/28 07:23:42;;;;;;;2.60;1.60;;;;;;;6.35;95.16;100055.63;5057773;28;20208;-80
2022/12/28 07:26:10;;;;;;;2.00;1.80;;;;;;;6.34;96.01;100034.88;5056868;28;20212;-81
2022/12/28 07:28:38;;;;;;;2.03;1.83;;;;;;;6.33;95.69;100021.09;5045598;28;20219;-81
2022/12/28 07:31:08;;;;;;;2.00;1.90;;;;;;;6.29;95.91;100013.34;5045141;28;20269;-79
2022/12/28 07:33:36;;;;;;;1.80;1.60;;;;;;;6.34;95.65;100015.03;5044997;28;20200;-80
2022/12/28 07:36:04;;;;;;;1.90;1.70;;;;;;;6.42;95.21;100024.47;5046807;28;20209;-81
2022/12/28 07:38:31;;;;;;;1.77;1.67;;;;;;;6.48;94.84;100027.00;5045135;28;20222;-83
2022/12/28 07:41:01;;;;;;;2.27;2.07;;;;;;;6.39;94.48;100045.25;5044164;28;20223;-81
2022/12/28 07:43:28;;;;;;;1.77;1.67;;;;;;;6.45;94.13;100061.59;5045053;28;20205;-81
2022/12/28 07:45:59;;;;;;;1.63;1.43;;;;;;;6.43;94.12;100058.16;5045587;28;20667;-80
2022/12/28 07:48:26;;;;;;;1.90;1.70;;;;;;;6.31;94.85;100056.53;5046355;28;20229;-80
2022/12/28 07:50:53;;;;;;;2.77;1.90;;;;;;;6.39;95.31;100053.88;5044896;28;20616;-80
2022/12/28 07:53:20;;;;;;;2.63;1.60;;;;;;;6.43;95.19;100054.72;5046387;28;20200;-79
2022/12/28 07:55:54;;;;;;;2.33;1.70;;;;;;;6.44;94.57;100054.72;5044699;28;20252;-80
2022/12/28 07:58:22;;;;;;;1.77;1.67;;;;;;;6.50;94.34;100066.72;5044482;28;20747;-81
2022/12/28 08:00:48;;;;;;;1.47;1.37;;;;;;;6.52;94.34;100062.41;5046444;28;20242;-81
2022/12/28 08:03:14;;;;;;;1.57;1.47;;;;;;;6.60;94.85;100077.88;5046744;28;20207;-80
2022/12/28 08:05:41;;;;;;;1.80;1.70;;;;;;;6.51;94.40;100094.41;5043230;28;20201;-81
2022/12/28 08:08:08;;;;;;;1.87;1.60;;;;;;;6.46;95.21;100078.88;5045773;28;20237;-80
2022/12/28 08:10:35;;;;;;;2.37;1.80;;;;;;;6.54;96.01;100055.47;5043579;28;20197;-80
2022/12/28 08:13:01;;;;;;;1.60;1.50;;;;;;;6.58;95.42;100064.97;5045329;28;20742;-80
2022/12/28 08:15:28;;;;;;;1.77;1.60;;;;;;;6.55;95.13;100052.00;5044572;28;20625;-80
2022/12/28 08:17:55;;;;;;;1.50;1.40;;;;;;;6.54;95.27;100048.56;5047118;28;20281;-80
2022/12/28 08:20:21;;;;;;;1.60;1.50;;;;;;;6.64;95.94;100062.31;5046219;28;20228;-81
2022/12/28 08:22:48;;;;;;;1.50;1.40;;;;;;;6.63;95.49;100068.34;5045001;28;20197;-82
2022/12/28 08:25:16;;;;;;;1.50;1.40;;;;;;;6.59;95.67;100047.66;5045156;28;20213;-81
2022/12/28 08:27:42;;;;;;;1.90;1.80;;;;;;;6.62;95.74;100053.69;5047215;28;20643;-80
2022/12/28 08:30:10;;;;;;;1.30;1.20;;;;;;;6.65;95.97;100045.00;5045368;28;20197;-80
2022/12/28 08:32:36;;;;;;;1.57;1.30;;;;;;;6.66;96.16;100044.13;5044298;28;20205;-79
2022/12/28 08:35:04;;;;;;;1.50;1.40;;;;;;;6.73;95.64;100027.63;5046183;28;20555;-80
2022/12/28 08:37:30;;;;;;;1.50;1.40;;;;;;;6.74;95.55;100031.97;5045047;28;20226;-79
2022/12/28 08:39:56;;;;;;;1.50;1.40;;;;;;;6.75;95.43;100038.84;5045257;28;20219;-80
2022/12/28 08:42:24;;;;;;;1.70;1.60;;;;;;;6.78;95.79;100043.16;5046342;28;20204;-79
2022/12/28 08:44:50;;;;;;;1.50;1.40;;;;;;;6.79;95.67;100058.69;5044299;28;20267;-79
2022/12/28 08:47:17;;;;;;;1.40;1.30;;;;;;;6.89;95.29;100069.84;5044028;28;20228;-80
2022/12/28 08:49:43;;;;;;;1.63;1.40;;;;;;;6.81;94.99;100080.28;5045625;28;20211;-79
2022/12/28 08:52:09;;;;;;;3.60;1.40;;;;;;;6.83;95.30;100077.69;5045523;28;20262;-80
2022/12/28 08:54:37;;;;;;;3.40;1.63;;;;;;;6.89;94.73;100099.25;5044996;28;20257;-81
2022/12/28 08:57:03;;;;;;;1.70;1.60;;;;;;;6.80;94.90;100096.75;5045648;28;20725;-81
2022/12/28 08:59:31;;;;;;;1.87;1.73;;;;;;;6.93;94.78;100097.47;5044909;28;20231;-82
2022/12/28 09:01:57;;;;;;;1.50;1.40;;;;;;;6.96;95.05;100103.50;5043492;28;20228;-80
2022/12/28 09:04:23;;;;;;;1.47;1.37;;;;;;;6.99;94.92;100110.41;5047598;28;20238;-80
2022/12/28 09:06:50;;;;;;;2.27;1.47;;;;;;;6.97;94.33;100113.00;5046286;28;20193;-80
2022/12/28 09:09:19;;;;;;;1.27;1.17;;;;;;;6.93;94.78;100108.72;5046419;28;20209;-80
2022/12/28 09:11:46;;;;;;;1.30;1.20;;;;;;;6.97;94.71;100122.53;5043207;28;20198;-80
2022/12/28 09:14:14;;;;;;;1.87;1.33;;;;;;;6.90;95.19;100111.34;5044760;28;20641;-78
2022/12/28 09:16:42;;;;;;;1.40;1.30;;;;;;;7.01;94.84;100100.00;5045738;28;20255;-79
2022/12/28 09:19:13;;;;;;;2.00;1.40;;;;;;;7.07;94.49;100097.34;5044444;28;20222;-79
2022/12/28 09:21:39;;;;;;;1.43;1.33;;;;;;;7.09;95.18;100104.22;5043965;28;20232;-80
2022/12/28 09:24:06;;;;;;;1.60;1.50;;;;;;;7.17;94.36;100106.75;5044989;28;20209;-80
2022/12/28 09:26:36;;;;;;;2.37;1.53;;;;;;;7.19;94.20;100123.16;5044660;28;20204;-81
2022/12/28 09:29:05;;;;;;;1.50;1.40;;;;;;;7.12;94.98;100113.75;5043880;28;20270;-79
2022/12/28 09:31:35;;;;;;;2.80;1.47;;;;;;;7.16;95.10;100121.47;5044171;28;20196;-79
2022/12/28 09:34:03;;;;;;;1.67;1.57;;;;;;;7.23;94.36;100108.44;5046220;28;20229;-78
2022/12/28 09:36:32;;;;;;;2.10;1.63;;;;;;;7.17;95.07;100096.38;5043836;28;20719;-82
2022/12/28 09:39:01;;;;;;;2.10;1.47;;;;;;;7.24;95.29;100107.56;5042985;28;21012;-80
2022/12/28 09:41:30;;;;;;;1.50;1.40;;;;;;;7.27;95.32;100091.94;5044195;28;20261;-79
2022/12/28 09:44:09;;;;;;;1.30;1.20;;;;;;;7.38;95.25;100094.44;5045502;28;20661;-80
2022/12/28 09:46:38;;;;;;;1.00;1.00;;;;;;;7.34;95.38;100104.84;5044811;28;20275;-80
2022/12/28 09:49:14;;;;;;;1.67;1.57;;;;;;;7.41;95.14;100102.19;5050618;28;20224;-80
2022/12/28 09:51:50;;;;;;;1.07;0.97;;;;;;;7.40;95.17;100097.88;5053809;28;20212;-79
2022/12/28 09:54:16;;;;;;;0.93;0.93;;;;;;;7.55;95.69;100105.47;5053481;28;20205;-80
2022/12/28 09:56:46;;;;;;;2.00;1.10;;;;;;;7.55;95.25;100097.66;5053057;28;20354;-80
2022/12/28 09:59:19;;;;;;;1.30;1.20;;;;;;;7.43;95.66;100109.06;5054511;28;20240;-80
2022/12/28 10:01:56;;;;;;;1.20;1.10;;;;;;;7.53;96.58;100087.31;5052750;28;20229;-80
2022/12/28 10:04:24;;;;;;;1.27;1.17;;;;;;;7.55;96.16;100082.97;5052996;28;20209;-82
2022/12/28 10:06:50;;;;;;;1.30;1.20;;;;;;;7.61;96.04;100084.63;5053201;28;20293;-82
2022/12/28 10:09:23;;;;;;;1.73;1.63;;;;;;;7.71;95.96;100082.75;5052898;28;20234;-79
2022/12/28 10:11:50;;;;;;;1.50;1.40;;;;;;;7.71;96.38;100087.94;5052419;28;20648;-79
2022/12/28 10:14:19;;;;;;;2.67;2.43;;;;;;;7.66;97.08;100088.00;5053002;28;20278;-80
2022/12/28 10:16:46;;;;;;;1.90;1.80;;;;;;;7.67;96.68;100083.66;5053958;28;20582;-80
2022/12/28 10:19:16;;;;;;;1.80;1.70;;;;;;;7.55;96.81;100072.56;5053801;28;20294;-80
2022/12/28 10:21:45;;;;;;;1.17;0.93;;;;;;;7.49;97.71;100066.59;5054386;28;20705;-79
2022/12/28 10:24:13;;;;;;;1.70;1.20;;;;;;;7.63;98.68;100048.22;5054736;28;20208;-80
2022/12/28 10:26:40;;;;;;;1.30;1.20;;;;;;;7.63;98.88;100027.44;5054827;28;20209;-80
2022/12/28 10:29:16;;;;;;;1.27;1.00;;;;;;;7.63;99.13;100011.84;5053865;28;20232;-81
2022/12/28 10:31:43;;;;;;;1.20;1.10;;;;;;;7.64;99.73;100005.81;5054391;28;20213;-80
2022/12/28 10:34:14;;;;;;;1.73;1.20;;;;;;;7.63;100.00;99997.16;5054181;28;20204;-81
2022/12/28 10:36:41;;;;;;;1.40;1.30;;;;;;;7.65;100.00;99995.41;5053705;28;20725;-81
2022/12/28 10:39:15;;;;;;;1.60;1.37;;;;;;;7.75;100.00;99981.38;5053275;28;20291;-81
2022/12/28 10:41:41;;;;;;;3.47;1.70;;;;;;;7.79;100.00;99965.72;5053249;28;20228;-79
2022/12/28 10:44:18;;;;;;;1.73;1.33;;;;;;;7.80;100.00;99954.47;5054134;28;20216;-81
2022/12/28 10:46:54;;;;;;;1.50;1.37;;;;;;;7.91;100.00;99958.63;5053560;28;20222;-82
2022/12/28 10:49:21;;;;;;;8.60;5.23;;;;;;;8.01;100.00;99954.13;5053827;28;20216;-82
2022/12/28 10:51:59;;;;;;;3.40;2.97;;;;;;;8.13;100.00;99914.09;5053698;28;20208;-83
2022/12/28 10:54:33;;;;;;;1.70;1.47;;;;;;;8.06;100.00;99936.72;5054842;28;20208;-83
2022/12/28 10:56:59;;;;;;;2.67;1.80;;;;;;;8.26;100.00;99938.97;5053844;28;20201;-82
2022/12/28 10:59:27;;;;;;;3.67;1.70;;;;;;;8.20;100.00;99952.06;5054701;28;20227;-81
2022/12/28 11:01:56;;;;;;;1.00;1.00;;;;;;;8.21;100.00;99951.22;5054260;28;20226;-82
2022/12/28 11:04:24;;;;;;;3.83;3.20;;;;;;;8.12;99.91;99991.19;5055688;28;20209;-82
2022/12/28 11:06:53;;;;;;;2.37;1.60;;;;;;;8.28;99.43;100007.41;5054779;28;20213;-81
2022/12/28 11:09:22;;;;;;;0.73;0.67;;;;;;;8.06;99.21;100012.09;5057297;28;20213;-81
2022/12/28 11:11:52;;;;;;;4.10;3.70;;;;;;;8.13;99.00;100002.47;5059182;28;20202;-80
2022/12/28 11:14:29;;;;;;;1.20;1.10;;;;;;;8.09;98.97;100003.41;5059836;28;20242;-83
2022/12/28 11:16:56;;;;;;;1.90;1.80;;;;;;;8.12;99.80;100001.59;5060703;28;20214;-82
2022/12/28 11:19:24;;;;;;;1.50;1.40;;;;;;;8.14;99.74;99991.19;5060063;28;20199;-83
2022/12/28 11:21:52;;;;;;;0.90;0.90;;;;;;;8.07;99.43;99994.78;5057249;28;20640;-81
2022/12/28 11:24:20;;;;;;;1.50;1.40;;;;;;;8.12;100.00;99983.41;5059537;28;20321;-83
2022/12/28 11:26:48;;;;;;;2.60;2.40;;;;;;;8.20;100.00;99985.88;5059652;28;20213;-82
2022/12/28 11:29:18;;;;;;;2.27;1.60;;;;;;;8.27;99.16;99995.31;5059778;28;20209;-81
2022/12/28 11:31:49;;;;;;;1.60;1.00;;;;;;;8.22;99.09;99991.91;5060779;28;20672;-84
2022/12/28 11:34:19;;;;;;;1.13;0.80;;;;;;;8.33;99.90;99979.59;5059477;28;20209;-80
2022/12/28 11:36:47;;;;;;;0.70;0.70;;;;;;;8.33;99.56;99978.75;5059519;28;20213;-82
2022/12/28 11:39:41;;;;;;;0.70;0.70;;;;;;;8.26;99.43;99993.56;5060087;28;20229;-83
2022/12/28 11:42:08;;;;;;;2.70;1.67;;;;;;;8.27;98.82;99992.69;5059121;28;20275;-80
2022/12/28 11:44:53;;;;;;;0.93;0.87;;;;;;;8.32;98.47;100006.50;5054917;28;20205;-82
2022/12/28 11:47:32;;;;;;;0.90;0.90;;;;;;;8.29;98.04;100010.88;5055105;28;20582;-78
2022/12/28 11:50:37;;;;;;;0.63;0.63;;;;;;;8.38;98.13;100010.72;5055812;28;20204;-80
2022/12/28 11:53:20;;;;;;;1.50;1.00;;;;;;;8.41;97.61;100015.03;5056115;28;20231;-80
2022/12/28 11:56:01;;;;;;;0.80;0.80;;;;;;;8.38;97.71;100015.91;5054711;28;20234;-80
2022/12/28 11:59:02;;;;;;;0.70;0.70;;;;;;;8.37;97.96;100016.81;5055421;28;20241;-79
2022/12/28 12:01:44;;;;;;;1.97;1.87;;;;;;;8.52;98.20;100007.91;5055833;28;20236;-78
2022/12/28 12:04:34;;;;;;;1.17;1.07;;;;;;;8.47;97.07;100021.00;5057590;28;20208;-80
2022/12/28 12:07:14;;;;;;;1.03;1.00;;;;;;;8.45;97.72;100014.13;5056083;28;20208;-80
2022/12/28 12:09:42;;;;;;;1.10;0.80;;;;;;;8.42;98.20;100003.75;5056296;28;20211;-78